createdAt,value
2022-12-17T00:00:33.332Z,42.13
2022-12-17T00:03:19.767Z,46.08
2022-12-17T00:06:05.473Z,48.00
2022-12-17T00:08:50.362Z,54.17
2022-12-17T00:11:35.212Z,47.40
2022-12-17T00:14:20.175Z,50.10
2022-12-17T00:17:05.215Z,51.55
2022-12-17T00:19:50.531Z,57.63
2022-12-17T00:22:35.363Z,55.80
2022-12-17T00:25:20.112Z,54.63
2022-12-17T00:28:05.158Z,50.10
2022-12-17T00:30:50.194Z,52.22
2022-12-17T00:33:35.487Z,51.17
2022-12-17T00:36:20.891Z,53.20
2022-12-17T00:39:05.788Z,51.85
2022-12-17T00:41:50.796Z,54.40
2022-12-17T00:44:35.856Z,58.08
2022-12-17T00:47:20.747Z,64.53
2022-12-17T00:50:06.966Z,60.35
2022-12-17T00:52:52.113Z,61.25
2022-12-17T00:55:36.989Z,51.38
2022-12-17T00:58:22.361Z,55.83
2022-12-17T01:01:07.253Z,57.55
2022-12-17T01:03:52.398Z,54.63
2022-12-17T01:06:37.616Z,59.42
2022-12-17T01:09:22.361Z,60.03
2022-12-17T01:12:07.382Z,55.70
2022-12-17T01:14:54.916Z,52.08
2022-12-17T01:17:40.168Z,63.45
2022-12-17T01:20:26.152Z,57.58
2022-12-17T01:23:11.655Z,53.20
2022-12-17T01:26:16.459Z,55.90
2022-12-17T01:29:01.766Z,58.65
2022-12-17T01:31:47.155Z,59.00
2022-12-17T01:34:32.105Z,53.58
2022-12-17T01:37:16.988Z,53.00
2022-12-17T01:40:01.970Z,57.30
2022-12-17T01:43:01.208Z,64.32
2022-12-17T01:45:55.448Z,54.00
2022-12-17T01:48:46.169Z,59.65
2022-12-17T01:51:32.893Z,60.05
2022-12-17T01:54:20.760Z,60.22
2022-12-17T01:57:06.051Z,58.55
2022-12-17T02:00:02.430Z,58.90
2022-12-17T02:02:48.002Z,59.33
2022-12-17T02:05:33.297Z,53.45
2022-12-17T02:08:37.116Z,58.95
2022-12-17T02:11:44.989Z,55.47
2022-12-17T02:14:52.001Z,59.63
2022-12-17T02:17:42.704Z,51.30
2022-12-17T02:20:36.680Z,54.80
2022-12-17T02:23:40.613Z,56.35
2022-12-17T02:26:40.036Z,52.53
2022-12-17T02:29:31.188Z,53.13
2022-12-17T02:32:16.447Z,61.17
2022-12-17T02:35:03.977Z,50.60
2022-12-17T02:37:50.377Z,57.42
2022-12-17T02:40:39.180Z,57.28
2022-12-17T02:43:26.278Z,59.22
2022-12-17T02:46:14.659Z,64.13
2022-12-17T02:49:00.485Z,55.83
2022-12-17T02:51:49.082Z,61.78
2022-12-17T02:54:34.213Z,58.35
2022-12-17T02:57:19.331Z,61.10
2022-12-17T03:00:04.178Z,59.97
2022-12-17T03:02:51.717Z,56.58
2022-12-17T03:05:45.043Z,61.00
2022-12-17T03:08:30.887Z,62.38
2022-12-17T03:11:16.247Z,60.08
2022-12-17T03:14:01.217Z,58.65
2022-12-17T03:16:46.583Z,57.38
2022-12-17T03:19:31.769Z,53.63
2022-12-17T03:22:16.762Z,55.15
2022-12-17T03:25:01.968Z,54.83
2022-12-17T03:27:46.882Z,58.10
2022-12-17T03:30:35.736Z,58.95
2022-12-17T03:33:21.385Z,52.63
2022-12-17T03:36:06.274Z,61.13
2022-12-17T03:38:51.065Z,56.78
2022-12-17T03:41:36.041Z,59.63
2022-12-17T03:44:20.871Z,60.97
2022-12-17T03:47:05.659Z,60.83
2022-12-17T03:49:50.636Z,68.55
2022-12-17T03:52:35.472Z,69.75
2022-12-17T03:55:20.360Z,65.35
2022-12-17T03:58:05.055Z,57.85
2022-12-17T04:00:50.130Z,57.92
2022-12-17T04:03:35.549Z,60.45
2022-12-17T04:06:20.944Z,62.85
2022-12-17T04:09:05.838Z,62.70
2022-12-17T04:11:50.676Z,56.88
2022-12-17T04:14:35.470Z,62.00
2022-12-17T04:17:20.320Z,64.88
2022-12-17T04:20:05.223Z,65.70
2022-12-17T04:22:49.978Z,60.30
2022-12-17T04:25:34.913Z,55.22
2022-12-17T04:28:19.724Z,64.75
2022-12-17T04:31:04.579Z,66.35
2022-12-17T04:33:49.731Z,65.10
2022-12-17T04:36:34.568Z,58.95
2022-12-17T04:39:19.325Z,55.00
2022-12-17T04:42:04.125Z,61.17
2022-12-17T04:44:49.130Z,52.72
2022-12-17T04:47:33.968Z,60.22
2022-12-17T04:50:18.918Z,64.20
2022-12-17T04:53:03.707Z,59.63
2022-12-17T04:55:48.614Z,62.13
2022-12-17T04:58:33.414Z,65.07
2022-12-17T05:01:18.470Z,60.22
2022-12-17T05:04:03.693Z,62.78
2022-12-17T05:06:48.949Z,62.38
2022-12-17T05:09:34.129Z,73.80
2022-12-17T05:12:18.846Z,67.55
2022-12-17T05:15:03.666Z,62.80
2022-12-17T05:17:48.452Z,65.32
2022-12-17T05:20:33.281Z,60.55
2022-12-17T05:23:25.732Z,59.92
2022-12-17T05:26:23.658Z,61.65
2022-12-17T05:29:12.645Z,65.13
2022-12-17T05:32:01.015Z,65.82
2022-12-17T05:34:45.728Z,61.63
2022-12-17T05:37:30.526Z,63.53
2022-12-17T05:40:15.640Z,63.58
2022-12-17T05:43:00.482Z,56.33
2022-12-17T05:45:45.397Z,60.20
2022-12-17T05:48:30.250Z,57.45
2022-12-17T05:51:15.409Z,66.50
2022-12-17T05:54:00.282Z,66.90
2022-12-17T05:56:45.133Z,60.08
2022-12-17T05:59:29.857Z,61.17
2022-12-17T06:02:14.796Z,58.85
2022-12-17T06:05:02.275Z,55.47
2022-12-17T06:07:47.495Z,56.15
2022-12-17T06:10:32.383Z,65.65
2022-12-17T06:13:17.105Z,67.15
2022-12-17T06:16:02.103Z,63.95
2022-12-17T06:18:47.248Z,65.25
2022-12-17T06:21:32.132Z,67.50
2022-12-17T06:24:16.964Z,71.40
2022-12-17T06:27:01.678Z,57.30
2022-12-17T06:29:46.653Z,59.50
2022-12-17T06:32:31.484Z,56.85
2022-12-17T06:35:16.283Z,67.47
2022-12-17T06:38:01.138Z,66.25
2022-12-17T06:41:00.139Z,65.22
2022-12-17T06:43:44.933Z,82.97
2022-12-17T06:46:29.818Z,63.58
2022-12-17T06:49:14.998Z,76.20
2022-12-17T06:51:59.784Z,69.32
2022-12-17T06:54:44.659Z,83.50
2022-12-17T06:57:29.864Z,69.68
2022-12-17T07:00:14.716Z,74.40
2022-12-17T07:02:59.787Z,71.55
2022-12-17T07:05:45.395Z,87.95
2022-12-17T07:08:30.499Z,73.05
2022-12-17T07:11:18.777Z,92.80
2022-12-17T07:14:04.094Z,82.38
2022-12-17T07:16:48.852Z,85.75
2022-12-17T07:19:33.954Z,96.28
2022-12-17T07:22:18.773Z,92.35
2022-12-17T07:25:03.935Z,102.43
2022-12-17T07:27:48.892Z,97.00
2022-12-17T07:30:33.676Z,118.97
2022-12-17T07:33:20.104Z,97.85
2022-12-17T07:36:04.918Z,87.00
2022-12-17T07:38:49.851Z,117.07
2022-12-17T07:41:34.574Z,71.47
2022-12-17T07:44:19.517Z,85.95
2022-12-17T07:47:04.391Z,81.05
2022-12-17T07:49:49.751Z,143.10
2022-12-17T07:52:34.625Z,113.00
2022-12-17T07:55:19.862Z,79.50
2022-12-17T07:58:04.712Z,99.70
2022-12-17T08:00:54.015Z,109.70
2022-12-17T08:03:39.449Z,100.72
2022-12-17T08:06:25.194Z,107.60
2022-12-17T08:09:09.964Z,68.70
2022-12-17T08:11:55.213Z,79.10
2022-12-17T08:14:40.057Z,83.60
2022-12-17T08:17:24.993Z,83.07
2022-12-17T08:20:09.882Z,70.25
2022-12-17T08:22:54.696Z,70.40
2022-12-17T08:25:39.615Z,75.57
2022-12-17T08:28:49.502Z,70.53
2022-12-17T08:31:29.473Z,62.15
2022-12-17T08:34:14.354Z,74.40
2022-12-17T08:36:59.195Z,72.15
2022-12-17T08:40:03.962Z,97.50
2022-12-17T08:42:48.989Z,93.38
2022-12-17T08:45:34.141Z,90.13
2022-12-17T08:48:42.820Z,91.93
2022-12-17T08:51:27.948Z,89.95
2022-12-17T08:54:12.738Z,110.50
2022-12-17T08:56:57.701Z,90.43
2022-12-17T08:59:42.599Z,80.85
2022-12-17T09:02:28.113Z,78.65
2022-12-17T09:05:13.064Z,99.93
2022-12-17T09:08:05.820Z,89.53
2022-12-17T09:10:51.083Z,92.40
2022-12-17T09:13:36.177Z,92.07
2022-12-17T09:16:21.189Z,106.38
2022-12-17T09:19:06.242Z,97.63
2022-12-17T09:21:51.045Z,116.30
2022-12-17T09:24:35.833Z,104.22
2022-12-17T09:27:20.911Z,100.68
2022-12-17T09:30:05.710Z,86.18
2022-12-17T09:32:50.605Z,85.55
2022-12-17T09:35:35.721Z,88.32
2022-12-17T09:38:20.689Z,78.10
2022-12-17T09:41:08.805Z,71.68
2022-12-17T09:44:09.358Z,72.10
2022-12-17T09:47:19.531Z,73.50
2022-12-17T09:50:04.240Z,73.38
2022-12-17T09:52:55.070Z,75.63
2022-12-17T09:55:46.014Z,61.22
2022-12-17T09:58:44.018Z,57.35
2022-12-17T10:01:43.687Z,53.67
2022-12-17T10:04:46.959Z,46.75
2022-12-17T10:07:37.122Z,45.00
2022-12-17T10:10:35.647Z,38.05
2022-12-17T10:13:20.452Z,35.40
2022-12-17T10:16:05.354Z,39.33
2022-12-17T10:18:50.500Z,33.80
2022-12-17T10:21:37.885Z,38.35
2022-12-17T10:24:25.391Z,45.05
2022-12-17T10:27:10.586Z,43.58
2022-12-17T10:29:55.877Z,42.55
2022-12-17T10:32:43.384Z,34.75
2022-12-17T10:35:55.505Z,33.28
2022-12-17T10:38:46.597Z,32.88
2022-12-17T10:41:43.785Z,35.30
2022-12-17T10:44:39.649Z,33.25
2022-12-17T10:47:30.488Z,32.42
2022-12-17T10:50:17.194Z,38.58
2022-12-17T10:53:04.574Z,33.83
2022-12-17T10:55:51.410Z,37.05
2022-12-17T10:58:48.382Z,33.95
2022-12-17T11:01:42.467Z,32.85
2022-12-17T11:04:43.171Z,35.33
2022-12-17T11:07:33.987Z,37.42
2022-12-17T11:10:20.815Z,36.97
2022-12-17T11:13:20.347Z,35.80
2022-12-17T11:16:08.246Z,34.35
2022-12-17T11:19:02.696Z,35.47
2022-12-17T11:21:53.634Z,33.63
2022-12-17T11:24:50.942Z,31.65
2022-12-17T11:27:40.336Z,33.30
2022-12-17T11:30:40.475Z,34.45
2022-12-17T11:33:40.662Z,33.10
2022-12-17T11:36:45.594Z,31.88
2022-12-17T11:39:57.025Z,33.38
2022-12-17T11:43:11.053Z,33.20
2022-12-17T11:46:13.580Z,34.58
2022-12-17T11:49:06.662Z,30.77
2022-12-17T11:52:15.909Z,32.63
2022-12-17T11:55:28.452Z,35.30
2022-12-17T11:58:36.731Z,32.50
2022-12-17T12:01:34.951Z,33.22
2022-12-17T12:04:33.193Z,26.38
2022-12-17T12:07:38.772Z,31.35
2022-12-17T12:11:20.953Z,32.03
2022-12-17T12:17:08.545Z,32.28
2022-12-17T12:20:18.958Z,30.92
2022-12-17T12:23:21.360Z,34.35
2022-12-17T12:26:40.978Z,27.33
2022-12-17T12:29:47.310Z,26.40
2022-12-17T12:33:09.660Z,28.58
2022-12-17T12:35:56.845Z,33.75
2022-12-17T12:38:52.793Z,32.33
2022-12-17T12:41:49.920Z,33.65
2022-12-17T12:44:49.850Z,30.80
2022-12-17T12:47:59.049Z,34.58
2022-12-17T12:51:33.591Z,37.83
2022-12-17T12:54:21.032Z,35.70
2022-12-17T12:57:06.275Z,33.53
2022-12-17T12:59:53.735Z,32.13
2022-12-17T13:02:38.481Z,33.38
2022-12-17T13:05:33.581Z,34.08
2022-12-17T13:08:23.129Z,37.30
2022-12-17T13:10:51.061Z,35.92
2022-12-17T13:13:27.576Z,36.13
2022-12-17T13:15:57.531Z,39.70
2022-12-17T13:18:32.997Z,42.90
2022-12-17T13:21:02.868Z,42.25
2022-12-17T13:23:38.046Z,38.13
2022-12-17T13:26:30.006Z,32.65
2022-12-17T13:29:11.609Z,41.28
2022-12-17T13:34:52.798Z,37.80
2022-12-17T13:37:22.294Z,33.95
2022-12-17T13:39:54.683Z,36.15
2022-12-17T13:42:30.323Z,37.83
2022-12-17T13:44:57.794Z,33.58
2022-12-17T13:47:28.049Z,37.45
2022-12-17T13:50:32.274Z,34.92
2022-12-17T13:52:43.332Z,36.20
2022-12-17T13:55:19.468Z,37.90
2022-12-17T13:57:47.840Z,35.45
2022-12-17T14:00:20.477Z,36.88
2022-12-17T14:02:47.557Z,38.42
2022-12-17T14:05:41.558Z,40.30
2022-12-17T14:08:08.986Z,37.25
2022-12-17T14:10:35.538Z,40.17
2022-12-17T14:13:12.980Z,33.78
2022-12-17T14:15:47.224Z,39.13
2022-12-17T14:18:19.925Z,39.05
2022-12-17T14:20:47.609Z,42.17
2022-12-17T14:23:28.770Z,44.97
2022-12-17T14:25:56.428Z,44.97
2022-12-17T14:28:48.702Z,46.40
2022-12-17T14:31:29.882Z,50.05
2022-12-17T14:34:08.674Z,43.97
2022-12-17T14:36:37.908Z,46.55
2022-12-17T14:39:24.170Z,42.33
2022-12-17T14:42:10.168Z,45.65
2022-12-17T14:44:42.729Z,49.10
2022-12-17T14:47:23.423Z,45.35
2022-12-17T14:50:12.657Z,47.55
2022-12-17T14:52:44.415Z,50.03
2022-12-17T14:55:36.847Z,47.63
2022-12-17T14:58:12.159Z,48.70
2022-12-17T15:00:45.272Z,51.88
2022-12-17T15:03:18.371Z,54.65
2022-12-17T15:05:51.084Z,48.13
2022-12-17T15:08:17.628Z,47.42
2022-12-17T15:10:44.092Z,52.08
2022-12-17T15:13:10.533Z,49.55
2022-12-17T15:15:36.923Z,46.58
2022-12-17T15:18:03.423Z,49.15
2022-12-17T15:20:31.128Z,52.10
2022-12-17T15:22:57.707Z,49.85
2022-12-17T15:25:24.174Z,52.28
2022-12-17T15:27:50.868Z,51.35
2022-12-17T15:30:17.932Z,55.88
2022-12-17T15:32:45.225Z,55.63
2022-12-17T15:35:13.362Z,45.63
2022-12-17T15:37:40.311Z,55.08
2022-12-17T15:40:07.937Z,49.38
2022-12-17T15:42:53.025Z,52.88
2022-12-17T15:45:19.429Z,59.85
2022-12-17T15:47:45.840Z,71.07
2022-12-17T15:50:12.237Z,59.55
2022-12-17T15:52:38.674Z,59.67
2022-12-17T15:55:05.505Z,64.35
2022-12-17T15:57:32.006Z,52.65
2022-12-17T15:59:58.453Z,56.83
2022-12-17T16:02:25.108Z,54.38
2022-12-17T16:04:52.630Z,62.78
2022-12-17T16:07:19.142Z,58.58
2022-12-17T16:09:45.545Z,63.78
2022-12-17T16:12:11.991Z,64.47
2022-12-17T16:14:38.451Z,68.28
2022-12-17T16:17:04.874Z,67.28
2022-12-17T16:19:31.353Z,67.82
2022-12-17T16:21:57.810Z,72.68
2022-12-17T16:24:24.218Z,67.65
2022-12-17T16:26:50.715Z,68.25
2022-12-17T16:29:17.140Z,61.47
2022-12-17T16:31:43.668Z,77.57
2022-12-17T16:34:11.761Z,63.15
2022-12-17T16:36:38.663Z,55.25
2022-12-17T16:39:05.580Z,62.92
2022-12-17T16:41:32.455Z,67.47
2022-12-17T16:43:59.201Z,71.40
2022-12-17T16:46:31.564Z,70.00
2022-12-17T16:49:00.292Z,59.60
2022-12-17T16:51:29.532Z,76.32
2022-12-17T16:53:57.538Z,72.70
2022-12-17T16:56:27.527Z,60.25
2022-12-17T16:58:55.108Z,66.18
2022-12-17T17:01:25.360Z,66.88
2022-12-17T17:03:52.491Z,76.03
2022-12-17T17:06:19.490Z,63.67
2022-12-17T17:08:46.829Z,73.20
2022-12-17T17:11:15.569Z,85.88
2022-12-17T17:13:42.711Z,92.30
2022-12-17T17:16:10.720Z,83.00
2022-12-17T17:18:38.026Z,93.93
2022-12-17T17:21:19.607Z,71.45
2022-12-17T17:26:13.916Z,63.38
2022-12-17T17:28:40.908Z,69.30
2022-12-17T17:31:10.772Z,64.15
2022-12-17T17:33:39.994Z,58.13
2022-12-17T17:36:08.725Z,64.85
2022-12-17T17:38:37.113Z,58.42
2022-12-17T17:41:04.784Z,59.35
2022-12-17T17:43:31.800Z,63.20
2022-12-17T17:46:10.507Z,69.10
2022-12-17T17:48:37.732Z,62.78
2022-12-17T17:51:08.320Z,68.95
2022-12-17T17:53:35.584Z,72.43
2022-12-17T17:56:07.545Z,67.82
2022-12-17T17:58:34.785Z,71.65
2022-12-17T18:01:08.296Z,77.57
2022-12-17T18:03:34.911Z,81.65
2022-12-17T18:06:06.232Z,83.88
2022-12-17T18:11:01.972Z,72.97
2022-12-17T18:13:47.003Z,73.68
2022-12-17T18:18:41.594Z,82.38
2022-12-17T18:21:17.173Z,79.68
2022-12-17T18:23:43.803Z,82.38
2022-12-17T18:26:16.756Z,75.95
2022-12-17T18:28:44.348Z,78.50
2022-12-17T18:31:22.926Z,72.47
2022-12-17T18:33:58.638Z,78.30
2022-12-17T18:36:28.661Z,71.88
2022-12-17T18:39:00.733Z,81.72
2022-12-17T18:41:46.521Z,83.43
2022-12-17T18:44:14.359Z,71.65
2022-12-17T18:46:40.868Z,61.15
2022-12-17T18:49:09.790Z,73.38
2022-12-17T18:51:37.964Z,71.38
2022-12-17T18:54:08.495Z,76.68
2022-12-17T18:57:00.519Z,67.00
2022-12-17T18:59:29.074Z,79.75
2022-12-17T19:01:56.600Z,72.85
2022-12-17T19:04:23.925Z,63.75
2022-12-17T19:06:53.280Z,71.43
2022-12-17T19:09:28.965Z,68.72
2022-12-17T19:11:56.045Z,63.00
2022-12-17T19:14:23.232Z,67.90
2022-12-17T19:16:51.276Z,67.43
2022-12-17T19:19:18.962Z,67.72
2022-12-17T19:21:46.022Z,64.32
2022-12-17T19:24:14.452Z,67.65
2022-12-17T19:26:41.105Z,70.47
2022-12-17T19:29:08.534Z,68.10
2022-12-17T19:31:35.306Z,69.32
2022-12-17T19:34:04.874Z,68.57
2022-12-17T19:36:33.213Z,67.93
2022-12-17T19:39:03.485Z,71.53
2022-12-17T19:41:31.878Z,73.68
2022-12-17T19:44:01.054Z,72.55
2022-12-17T19:46:27.854Z,73.28
2022-12-17T19:48:54.842Z,69.05
2022-12-17T19:51:25.931Z,74.13
2022-12-17T19:53:52.619Z,68.47
2022-12-17T19:56:26.226Z,72.47
2022-12-17T19:58:55.969Z,82.03
2022-12-17T20:01:25.585Z,81.80
2022-12-17T20:03:53.690Z,82.22
2022-12-17T20:06:23.802Z,96.50
2022-12-17T20:08:50.682Z,82.85
2022-12-17T20:11:33.425Z,83.07
2022-12-17T20:14:26.548Z,85.85
2022-12-17T20:16:56.954Z,74.95
2022-12-17T20:19:26.073Z,84.70
2022-12-17T20:21:53.466Z,81.75
2022-12-17T20:24:19.993Z,93.35
2022-12-17T20:26:49.895Z,86.00
2022-12-17T20:29:17.744Z,95.93
2022-12-17T20:31:49.375Z,102.28
2022-12-17T20:34:17.302Z,110.78
2022-12-17T20:36:44.764Z,106.13
2022-12-17T20:39:11.783Z,106.28
2022-12-17T20:41:40.102Z,116.75
2022-12-17T20:44:10.965Z,111.50
2022-12-17T20:46:37.768Z,121.78
2022-12-17T20:49:05.238Z,118.95
2022-12-17T20:51:32.074Z,168.50
2022-12-17T20:54:00.131Z,148.25
2022-12-17T20:56:32.406Z,139.40
2022-12-17T20:59:04.810Z,110.82
2022-12-17T21:01:33.731Z,114.72
2022-12-17T21:04:01.233Z,114.30
2022-12-17T21:06:35.211Z,118.28
2022-12-17T21:09:02.222Z,123.40
2022-12-17T21:11:30.337Z,158.48
2022-12-17T21:13:57.619Z,115.05
2022-12-17T21:16:28.008Z,144.02
2022-12-17T21:18:55.545Z,132.32
2022-12-17T21:21:25.366Z,126.72
2022-12-17T21:23:52.838Z,160.75
2022-12-17T21:26:28.258Z,104.22
2022-12-17T21:28:59.152Z,112.28
2022-12-17T21:31:27.104Z,172.82
2022-12-17T21:33:57.866Z,145.20
2022-12-17T21:36:26.217Z,151.75
2022-12-17T21:38:53.369Z,97.10
2022-12-17T21:41:22.826Z,125.65
2022-12-17T21:43:54.540Z,132.35
2022-12-17T21:46:21.147Z,114.65
2022-12-17T21:48:48.073Z,138.98
2022-12-17T21:51:15.099Z,133.20
2022-12-17T21:53:43.539Z,146.25
2022-12-17T21:56:13.116Z,144.68
2022-12-17T21:58:41.024Z,117.97
2022-12-17T22:01:16.692Z,125.15
2022-12-17T22:03:45.999Z,110.85
2022-12-17T22:06:15.280Z,137.88
2022-12-17T22:08:42.872Z,157.90
2022-12-17T22:11:19.167Z,113.85
2022-12-17T22:14:08.927Z,141.60
2022-12-17T22:16:42.247Z,109.40
2022-12-17T22:19:11.073Z,134.90
2022-12-17T22:21:39.768Z,119.57
2022-12-17T22:24:07.438Z,127.30
2022-12-17T22:26:34.025Z,124.22
2022-12-17T22:29:00.783Z,102.95
2022-12-17T22:31:45.676Z,120.45
2022-12-17T22:35:05.155Z,125.13
2022-12-17T22:39:44.932Z,97.18
2022-12-17T22:44:33.953Z,95.47
2022-12-17T22:44:40.695Z,117.85
2022-12-17T22:45:48.842Z,116.35
2022-12-17T22:48:15.716Z,128.02
2022-12-17T22:51:01.300Z,135.70
2022-12-17T22:53:29.264Z,117.07
2022-12-17T22:56:14.610Z,95.65
2022-12-17T22:58:51.428Z,90.07
2022-12-17T23:01:22.733Z,100.28
2022-12-17T23:03:49.856Z,119.10
2022-12-17T23:06:17.816Z,79.63
2022-12-17T23:08:45.094Z,80.90
2022-12-17T23:11:14.558Z,101.03
2022-12-17T23:13:42.064Z,122.57
2022-12-17T23:16:11.091Z,62.15
2022-12-17T23:18:37.577Z,72.80
2022-12-17T23:21:07.892Z,119.68
2022-12-17T23:23:34.708Z,89.10
2022-12-17T23:26:16.930Z,72.80
2022-12-17T23:28:44.307Z,96.47
2022-12-17T23:31:19.157Z,106.55
2022-12-17T23:33:46.348Z,135.38
2022-12-17T23:36:15.835Z,100.55
2022-12-17T23:38:42.949Z,86.47
2022-12-17T23:41:11.528Z,93.22
2022-12-17T23:43:39.078Z,86.80
2022-12-17T23:46:07.891Z,99.45
2022-12-17T23:48:40.709Z,114.65
2022-12-17T23:51:10.825Z,113.35
2022-12-17T23:53:38.672Z,176.52
2022-12-17T23:56:13.947Z,144.20
2022-12-17T23:58:42.399Z,162.32
